Time;durP1;ratioP1;P1;durP2;ratioP2;P2;SDS_P1;SDS_P2;PMS_P1;PMS_P2;Temp;Humidity;BMP_temperature;BMP_pressure;BME280_temperature;BME280_humidity;BME280_pressure;Samples;Min_cycle;Max_cycle;Signal;HPM_P1;HPM_P2
2022/09/12 00:01:06;;;;;;;27.10;19.13;;;;;;;;;;5010718;28;20207;-74
2022/09/12 00:03:31;;;;;;;26.95;19.60;;;;;;;;;;5016723;28;20210;-74
2022/09/12 00:05:56;;;;;;;29.58;20.35;;;;;;;;;;5010610;28;20245;-74
2022/09/12 00:08:21;;;;;;;28.50;20.80;;;;;;;;;;5010711;28;20175;-73
2022/09/12 00:10:47;;;;;;;28.30;18.07;;;;;;;;;;5003688;28;20264;-74
2022/09/12 00:13:12;;;;;;;22.45;17.90;;;;;;;;;;5007007;28;20523;-74
2022/09/12 00:15:38;;;;;;;23.23;18.35;;;;;;;;;;5014573;28;20240;-73
2022/09/12 00:18:03;;;;;;;20.27;16.08;;;;;;;;;;5015992;28;20244;-74
2022/09/12 00:20:28;;;;;;;23.00;17.67;;;;;;;;;;5014442;28;20676;-73
2022/09/12 00:22:54;;;;;;;25.50;17.92;;;;;;;;;;5021726;28;20694;-75
2022/09/12 00:25:19;;;;;;;23.30;17.05;;;;;;;;;;5014669;28;20640;-73
2022/09/12 00:27:44;;;;;;;27.13;20.15;;;;;;;;;;5007399;28;20179;-74
2022/09/12 00:30:09;;;;;;;27.88;19.67;;;;;;;;;;5015481;28;20202;-74
2022/09/12 00:32:35;;;;;;;27.73;20.02;;;;;;;;;;5012186;28;20265;-74
2022/09/12 00:35:01;;;;;;;32.20;22.40;;;;;;;;;;5021282;28;20237;-74
2022/09/12 00:37:27;;;;;;;30.85;21.25;;;;;;;;;;5008331;28;20277;-74
2022/09/12 00:39:52;;;;;;;29.73;20.30;;;;;;;;;;5008591;28;20249;-74
2022/09/12 00:42:17;;;;;;;29.95;21.35;;;;;;;;;;5019422;28;20202;-75
2022/09/12 00:44:44;;;;;;;26.83;19.58;;;;;;;;;;4997358;28;20659;-73
2022/09/12 00:47:36;;;;;;;24.08;18.45;;;;;;;;;;5010474;28;20177;-74
2022/09/12 00:50:06;;;;;;;27.77;19.88;;;;;;;;;;5003496;28;20230;-74
2022/09/12 00:52:38;;;;;;;27.92;19.00;;;;;;;;;;5009954;28;20183;-74
2022/09/12 00:55:06;;;;;;;31.77;22.92;;;;;;;;;;5008125;28;20241;-74
2022/09/12 00:57:34;;;;;;;32.95;21.17;;;;;;;;;;5014119;28;20187;-74
2022/09/12 01:00:19;;;;;;;25.15;18.60;;;;;;;;;;5009431;28;20848;-74
2022/09/12 01:02:47;;;;;;;33.42;21.15;;;;;;;;;;5010089;28;20328;-74
2022/09/12 01:05:13;;;;;;;27.83;20.20;;;;;;;;;;5014072;28;20675;-74
2022/09/12 01:07:38;;;;;;;30.83;20.98;;;;;;;;;;5008318;28;20211;-74
2022/09/12 01:10:05;;;;;;;31.58;21.77;;;;;;;;;;5008592;28;20215;-74
2022/09/12 01:12:30;;;;;;;35.40;22.65;;;;;;;;;;5013022;28;20184;-74
2022/09/12 01:14:55;;;;;;;32.60;22.02;;;;;;;;;;5016141;28;20550;-75
2022/09/12 01:17:21;;;;;;;27.15;19.90;;;;;;;;;;5014566;28;20706;-74
2022/09/12 01:20:22;;;;;;;30.13;21.30;;;;;;;;;;5014439;28;20206;-74
2022/09/12 01:23:12;;;;;;;27.20;19.40;;;;;;;;;;4932262;29;20209;-74
2022/09/12 01:25:43;;;;;;;29.40;20.33;;;;;;;;;;5010879;28;20202;-74
2022/09/12 01:28:23;;;;;;;33.22;20.83;;;;;;;;;;5014909;28;20185;-74
2022/09/12 01:30:59;;;;;;;34.67;21.35;;;;;;;;;;5007383;28;20237;-75
2022/09/12 01:33:33;;;;;;;31.63;19.80;;;;;;;;;;5017452;28;20218;-75
2022/09/12 01:36:04;;;;;;;31.30;21.52;;;;;;;;;;5013626;28;20214;-74
2022/09/12 01:38:37;;;;;;;32.25;20.88;;;;;;;;;;5020136;28;20175;-74
2022/09/12 01:41:12;;;;;;;35.78;21.75;;;;;;;;;;5008267;28;20569;-74
2022/09/12 01:43:37;;;;;;;35.72;21.55;;;;;;;;;;5008299;28;20702;-74
2022/09/12 01:46:10;;;;;;;31.63;22.33;;;;;;;;;;5008838;28;20210;-74
2022/09/12 01:48:39;;;;;;;31.50;21.20;;;;;;;;;;5018091;28;20171;-75
2022/09/12 01:51:15;;;;;;;31.05;21.27;;;;;;;;;;5010255;28;20254;-74
2022/09/12 01:53:43;;;;;;;33.15;22.55;;;;;;;;;;5020876;28;20177;-74
2022/09/12 01:56:10;;;;;;;32.78;21.45;;;;;;;;;;5016672;28;20183;-74
2022/09/12 01:58:42;;;;;;;31.75;20.38;;;;;;;;;;5014062;28;20179;-73
2022/09/12 02:01:07;;;;;;;31.23;21.33;;;;;;;;;;5016725;28;20194;-74
2022/09/12 02:03:38;;;;;;;32.08;20.17;;;;;;;;;;5014713;28;20210;-74
2022/09/12 02:06:06;;;;;;;27.20;19.02;;;;;;;;;;5014046;28;20787;-73
2022/09/12 02:08:33;;;;;;;33.72;21.92;;;;;;;;;;5014687;28;20187;-74
2022/09/12 02:11:02;;;;;;;34.15;20.38;;;;;;;;;;5018042;28;20214;-74
2022/09/12 02:13:27;;;;;;;35.15;24.08;;;;;;;;;;5023957;28;20247;-74
2022/09/12 02:15:55;;;;;;;33.42;21.85;;;;;;;;;;5018818;28;20178;-73
2022/09/12 02:18:20;;;;;;;32.83;22.05;;;;;;;;;;5021115;28;20178;-73
2022/09/12 02:20:47;;;;;;;31.92;22.35;;;;;;;;;;5012417;28;20238;-74
2022/09/12 02:23:15;;;;;;;34.08;20.83;;;;;;;;;;4998653;28;20206;-74
2022/09/12 02:25:43;;;;;;;38.33;22.88;;;;;;;;;;5013257;28;20581;-74
2022/09/12 02:28:14;;;;;;;30.95;20.73;;;;;;;;;;5016904;28;20274;-74
2022/09/12 02:30:42;;;;;;;30.70;21.35;;;;;;;;;;5013001;28;20249;-75
2022/09/12 02:33:18;;;;;;;30.50;20.55;;;;;;;;;;5012492;28;20614;-74
2022/09/12 02:35:50;;;;;;;31.52;21.55;;;;;;;;;;5012441;28;20178;-74
2022/09/12 02:38:18;;;;;;;36.97;22.00;;;;;;;;;;5012058;28;20183;-74
2022/09/12 02:40:43;;;;;;;37.22;23.63;;;;;;;;;;5014640;28;20687;-74
2022/09/12 02:43:08;;;;;;;36.20;22.85;;;;;;;;;;5012701;28;20211;-74
2022/09/12 02:45:34;;;;;;;35.70;23.40;;;;;;;;;;5011920;28;20202;-74
2022/09/12 02:47:59;;;;;;;38.63;23.73;;;;;;;;;;5008096;28;20187;-74
2022/09/12 02:50:25;;;;;;;35.92;22.05;;;;;;;;;;5011001;28;20671;-74
2022/09/12 02:52:52;;;;;;;38.38;23.17;;;;;;;;;;5012088;28;20435;-74
2022/09/12 02:55:17;;;;;;;35.33;24.13;;;;;;;;;;5014878;28;20182;-75
2022/09/12 02:57:43;;;;;;;44.85;25.13;;;;;;;;;;5023492;28;20457;-74
2022/09/12 03:00:08;;;;;;;36.85;24.15;;;;;;;;;;5015325;28;20266;-75
2022/09/12 03:02:52;;;;;;;35.80;22.08;;;;;;;;;;5011395;28;20300;-74
2022/09/12 03:05:21;;;;;;;35.20;22.88;;;;;;;;;;5012696;28;20182;-74
2022/09/12 03:07:55;;;;;;;39.50;25.10;;;;;;;;;;5011572;28;20207;-74
2022/09/12 03:10:35;;;;;;;36.40;23.38;;;;;;;;;;5021696;28;20620;-74
2022/09/12 03:13:06;;;;;;;37.05;23.27;;;;;;;;;;5018526;28;20182;-74
2022/09/12 03:15:39;;;;;;;42.00;25.42;;;;;;;;;;5016703;28;20627;-74
2022/09/12 03:18:07;;;;;;;40.50;25.27;;;;;;;;;;5017788;28;20183;-72
2022/09/12 03:20:49;;;;;;;45.78;26.58;;;;;;;;;;5011275;28;20202;-72
2022/09/12 03:23:32;;;;;;;42.25;26.88;;;;;;;;;;5002060;28;20243;-72
2022/09/12 03:26:11;;;;;;;46.67;26.92;;;;;;;;;;5012151;28;20183;-74
2022/09/12 03:28:37;;;;;;;45.47;26.48;;;;;;;;;;5010598;28;20178;-74
2022/09/12 03:31:10;;;;;;;39.15;24.58;;;;;;;;;;5016188;28;20190;-74
2022/09/12 03:33:35;;;;;;;43.78;24.42;;;;;;;;;;5009955;28;20179;-72
2022/09/12 03:36:01;;;;;;;40.20;24.73;;;;;;;;;;5011958;28;20187;-74
2022/09/12 03:38:26;;;;;;;43.63;26.60;;;;;;;;;;5016224;28;20183;-73
2022/09/12 03:40:51;;;;;;;43.60;25.25;;;;;;;;;;5016906;28;20933;-74
2022/09/12 03:43:16;;;;;;;42.38;25.38;;;;;;;;;;5010564;28;20337;-74
2022/09/12 03:45:41;;;;;;;38.63;23.60;;;;;;;;;;5012785;28;20187;-74
2022/09/12 03:48:06;;;;;;;45.65;27.95;;;;;;;;;;5012330;28;20266;-75
2022/09/12 03:50:32;;;;;;;40.55;26.30;;;;;;;;;;4996723;28;20463;-74
2022/09/12 03:52:58;;;;;;;46.17;28.27;;;;;;;;;;4998052;28;20191;-74
2022/09/12 03:55:24;;;;;;;48.63;26.48;;;;;;;;;;5012796;28;20296;-74
2022/09/12 03:57:51;;;;;;;45.75;27.80;;;;;;;;;;5009620;28;20772;-74
2022/09/12 04:00:16;;;;;;;43.13;26.08;;;;;;;;;;5023054;28;20304;-74
2022/09/12 04:02:42;;;;;;;44.35;27.15;;;;;;;;;;5009649;28;20215;-74
2022/09/12 04:05:07;;;;;;;42.65;26.33;;;;;;;;;;5013365;28;20229;-74
2022/09/12 04:07:32;;;;;;;44.28;26.42;;;;;;;;;;5017331;28;20205;-74
2022/09/12 04:09:57;;;;;;;43.33;24.83;;;;;;;;;;5013408;28;20692;-74
2022/09/12 04:12:23;;;;;;;40.90;24.90;;;;;;;;;;5010520;28;20715;-74
2022/09/12 04:14:48;;;;;;;43.13;24.85;;;;;;;;;;5013856;28;20183;-73
2022/09/12 04:17:14;;;;;;;36.35;23.70;;;;;;;;;;5010603;28;20182;-74
2022/09/12 04:19:40;;;;;;;36.53;20.70;;;;;;;;;;5009699;28;20194;-74
2022/09/12 04:22:05;;;;;;;35.78;21.83;;;;;;;;;;5009002;28;20211;-74
2022/09/12 04:24:30;;;;;;;35.15;22.48;;;;;;;;;;5007608;28;20897;-74
2022/09/12 04:26:55;;;;;;;46.35;25.77;;;;;;;;;;5004833;28;20225;-74
2022/09/12 04:29:21;;;;;;;41.85;26.35;;;;;;;;;;5019036;28;20210;-74
2022/09/12 04:31:46;;;;;;;44.58;25.30;;;;;;;;;;5009678;28;20623;-73
2022/09/12 04:34:11;;;;;;;40.60;24.60;;;;;;;;;;5010929;28;20244;-73
2022/09/12 04:36:36;;;;;;;37.20;22.55;;;;;;;;;;5012142;28;20186;-73
2022/09/12 04:39:03;;;;;;;38.90;24.48;;;;;;;;;;5012549;28;20187;-73
2022/09/12 04:41:29;;;;;;;40.78;23.92;;;;;;;;;;5008014;28;20199;-73
2022/09/12 04:44:02;;;;;;;41.60;24.08;;;;;;;;;;5010885;28;20175;-73
2022/09/12 04:46:28;;;;;;;38.65;23.92;;;;;;;;;;5016659;28;20560;-73
2022/09/12 04:48:53;;;;;;;46.80;25.80;;;;;;;;;;5008840;28;20179;-73
2022/09/12 04:51:24;;;;;;;35.40;22.73;;;;;;;;;;5010188;28;20221;-73
2022/09/12 04:53:50;;;;;;;36.95;22.95;;;;;;;;;;5018806;28;20265;-73
2022/09/12 04:56:16;;;;;;;35.42;22.48;;;;;;;;;;5010726;28;20179;-73
2022/09/12 04:58:41;;;;;;;37.40;21.73;;;;;;;;;;5013058;28;20715;-73
2022/09/12 05:01:08;;;;;;;37.28;22.15;;;;;;;;;;5010608;28;20206;-73
2022/09/12 05:03:33;;;;;;;37.65;23.10;;;;;;;;;;5003392;28;20218;-73
2022/09/12 05:06:01;;;;;;;36.00;22.58;;;;;;;;;;5007225;28;20175;-73
2022/09/12 05:08:26;;;;;;;34.55;22.52;;;;;;;;;;5019052;28;20187;-73
2022/09/12 05:10:51;;;;;;;33.40;22.03;;;;;;;;;;5008128;28;20203;-73
2022/09/12 05:13:16;;;;;;;33.50;22.20;;;;;;;;;;5009753;28;20510;-73
2022/09/12 05:15:42;;;;;;;32.22;21.73;;;;;;;;;;5008045;28;20432;-74
2022/09/12 05:18:07;;;;;;;32.63;21.23;;;;;;;;;;5012512;28;20277;-74
2022/09/12 05:20:32;;;;;;;40.35;23.02;;;;;;;;;;5006868;28;20234;-73
2022/09/12 05:22:58;;;;;;;31.95;21.23;;;;;;;;;;5008540;28;20202;-73
2022/09/12 05:25:23;;;;;;;33.38;22.45;;;;;;;;;;4992007;28;20183;-73
2022/09/12 05:27:50;;;;;;;32.83;20.95;;;;;;;;;;5016854;28;21030;-73
2022/09/12 05:30:16;;;;;;;33.88;22.13;;;;;;;;;;5004645;28;20286;-73
2022/09/12 05:32:41;;;;;;;35.05;22.58;;;;;;;;;;5012728;28;20277;-73
2022/09/12 05:35:06;;;;;;;31.35;21.08;;;;;;;;;;5011289;28;20657;-73
2022/09/12 05:37:31;;;;;;;34.85;20.67;;;;;;;;;;5008037;28;20265;-73
2022/09/12 05:39:57;;;;;;;34.15;22.60;;;;;;;;;;5006801;28;20651;-73
2022/09/12 05:42:22;;;;;;;35.38;23.50;;;;;;;;;;4998278;28;20764;-73
2022/09/12 05:44:47;;;;;;;35.00;22.67;;;;;;;;;;5011839;28;20207;-73
2022/09/12 05:47:13;;;;;;;35.75;23.40;;;;;;;;;;5009311;28;20722;-74
2022/09/12 05:49:38;;;;;;;34.75;23.02;;;;;;;;;;5008707;28;20792;-73
2022/09/12 05:52:03;;;;;;;32.85;21.08;;;;;;;;;;5008436;28;20229;-73
2022/09/12 05:54:28;;;;;;;37.85;24.25;;;;;;;;;;5007965;28;20187;-73
2022/09/12 05:56:53;;;;;;;35.77;22.40;;;;;;;;;;5018826;28;20271;-73
2022/09/12 05:59:19;;;;;;;32.90;21.83;;;;;;;;;;5014901;28;20432;-74
2022/09/12 06:01:45;;;;;;;39.78;24.23;;;;;;;;;;5009906;28;20557;-74
2022/09/12 06:04:10;;;;;;;37.38;25.70;;;;;;;;;;5010703;28;20179;-73
2022/09/12 06:06:37;;;;;;;36.10;22.70;;;;;;;;;;5010943;28;20648;-73
2022/09/12 06:09:03;;;;;;;41.42;23.80;;;;;;;;;;5011734;28;20190;-74
2022/09/12 06:11:30;;;;;;;38.45;23.55;;;;;;;;;;5011704;28;20210;-73
2022/09/12 06:13:56;;;;;;;36.55;24.58;;;;;;;;;;5012981;28;20255;-74
2022/09/12 06:16:23;;;;;;;40.70;24.73;;;;;;;;;;5011366;28;20179;-74
2022/09/12 06:18:49;;;;;;;42.80;25.85;;;;;;;;;;5022657;28;20633;-73
2022/09/12 06:21:15;;;;;;;39.83;25.95;;;;;;;;;;5011857;28;20210;-73
2022/09/12 06:23:40;;;;;;;43.78;24.88;;;;;;;;;;5011855;28;20209;-73
2022/09/12 06:26:07;;;;;;;35.97;24.02;;;;;;;;;;5010331;28;20179;-74
2022/09/12 06:28:33;;;;;;;41.80;26.25;;;;;;;;;;5011571;28;20210;-73
2022/09/12 06:31:03;;;;;;;39.67;26.67;;;;;;;;;;5021258;28;20194;-73
2022/09/12 06:33:29;;;;;;;33.30;23.35;;;;;;;;;;5023603;28;20182;-73
2022/09/12 06:35:54;;;;;;;39.60;25.60;;;;;;;;;;5002012;28;20179;-73
2022/09/12 06:38:19;;;;;;;38.63;24.50;;;;;;;;;;5011444;28;20641;-72
2022/09/12 06:40:44;;;;;;;34.25;24.27;;;;;;;;;;5022835;28;20252;-73
2022/09/12 06:43:11;;;;;;;36.10;22.98;;;;;;;;;;5015990;28;20203;-73
2022/09/12 06:45:36;;;;;;;30.25;22.42;;;;;;;;;;5017574;28;20179;-72
2022/09/12 06:48:01;;;;;;;32.70;22.83;;;;;;;;;;5025033;28;20250;-73
2022/09/12 06:50:26;;;;;;;33.80;23.55;;;;;;;;;;5022206;28;20195;-73
2022/09/12 06:52:52;;;;;;;29.75;21.50;;;;;;;;;;5024532;28;20171;-73
2022/09/12 06:55:17;;;;;;;29.40;21.73;;;;;;;;;;5013205;28;20183;-73
2022/09/12 06:57:42;;;;;;;28.65;21.05;;;;;;;;;;5013178;28;20298;-73
2022/09/12 07:00:08;;;;;;;27.45;20.27;;;;;;;;;;5021230;28;20202;-73
2022/09/12 07:02:34;;;;;;;28.40;20.40;;;;;;;;;;5010469;28;20447;-72
2022/09/12 07:04:59;;;;;;;26.93;20.13;;;;;;;;;;5020316;28;20194;-73
2022/09/12 07:07:24;;;;;;;28.05;20.85;;;;;;;;;;5026341;28;20404;-73
2022/09/12 07:09:50;;;;;;;27.95;20.67;;;;;;;;;;5008712;28;20199;-72
2022/09/12 07:12:15;;;;;;;25.50;20.47;;;;;;;;;;5010914;28;20187;-73
2022/09/12 07:14:40;;;;;;;25.38;19.00;;;;;;;;;;5009350;28;21070;-73
2022/09/12 07:17:06;;;;;;;24.70;20.42;;;;;;;;;;5025184;28;20265;-72
2022/09/12 07:19:31;;;;;;;26.15;19.15;;;;;;;;;;5022725;28;20201;-72
2022/09/12 07:21:57;;;;;;;27.48;19.92;;;;;;;;;;5016474;28;20199;-73
2022/09/12 07:24:22;;;;;;;24.33;19.40;;;;;;;;;;5017385;28;20190;-73
2022/09/12 07:26:47;;;;;;;23.83;18.77;;;;;;;;;;5017961;28;20180;-72
2022/09/12 07:29:15;;;;;;;25.02;18.95;;;;;;;;;;5015692;28;20234;-72
2022/09/12 07:31:40;;;;;;;24.88;18.52;;;;;;;;;;5017514;28;20261;-73
2022/09/12 07:34:05;;;;;;;22.05;19.13;;;;;;;;;;5012751;28;20455;-72
2022/09/12 07:36:30;;;;;;;21.35;17.73;;;;;;;;;;5022242;28;20175;-73
2022/09/12 07:38:56;;;;;;;21.88;17.45;;;;;;;;;;5010771;28;20194;-72
2022/09/12 07:41:26;;;;;;;24.95;18.35;;;;;;;;;;5015959;28;20688;-72
2022/09/12 07:43:53;;;;;;;20.05;15.70;;;;;;;;;;5015747;28;20206;-72
2022/09/12 07:46:18;;;;;;;21.30;17.55;;;;;;;;;;4994387;28;20178;-72
2022/09/12 07:48:44;;;;;;;19.30;17.13;;;;;;;;;;5018209;28;20178;-72
2022/09/12 07:51:10;;;;;;;23.70;17.08;;;;;;;;;;5012953;28;20203;-72
2022/09/12 07:53:39;;;;;;;25.45;17.98;;;;;;;;;;5018241;28;20175;-72
2022/09/12 07:56:05;;;;;;;21.25;15.98;;;;;;;;;;5006386;28;20175;-72
2022/09/12 07:58:31;;;;;;;20.33;16.85;;;;;;;;;;5013736;28;20187;-72
2022/09/12 08:01:07;;;;;;;18.50;16.27;;;;;;;;;;5007509;28;20199;-72
2022/09/12 08:03:33;;;;;;;22.35;16.23;;;;;;;;;;5021974;28;20199;-73
2022/09/12 08:06:02;;;;;;;17.35;15.38;;;;;;;;;;5023956;28;20176;-72
2022/09/12 08:08:28;;;;;;;19.38;16.60;;;;;;;;;;5012038;28;20183;-72
2022/09/12 08:10:55;;;;;;;18.77;16.20;;;;;;;;;;5016532;28;20213;-72
2022/09/12 08:13:21;;;;;;;20.13;16.65;;;;;;;;;;5013472;28;20191;-71
2022/09/12 08:15:46;;;;;;;17.35;15.45;;;;;;;;;;5017145;28;20192;-72
2022/09/12 08:18:11;;;;;;;18.63;14.73;;;;;;;;;;5022947;28;20182;-72
2022/09/12 08:20:36;;;;;;;18.67;16.48;;;;;;;;;;5022305;28;20858;-71
2022/09/12 08:23:02;;;;;;;19.42;15.90;;;;;;;;;;5014399;28;20290;-73
2022/09/12 08:25:27;;;;;;;19.20;14.15;;;;;;;;;;5004572;28;20176;-72
2022/09/12 08:27:53;;;;;;;15.70;13.75;;;;;;;;;;5016411;28;20209;-71
2022/09/12 08:30:18;;;;;;;16.35;14.52;;;;;;;;;;5005000;28;20210;-73
2022/09/12 08:32:43;;;;;;;16.92;14.65;;;;;;;;;;4987521;28;20236;-72
2022/09/12 08:35:08;;;;;;;16.90;14.40;;;;;;;;;;5003891;28;20191;-72
2022/09/12 08:37:33;;;;;;;17.20;14.03;;;;;;;;;;5020221;28;20408;-71
2022/09/12 08:39:59;;;;;;;14.13;12.07;;;;;;;;;;5021818;28;20492;-73
2022/09/12 08:42:49;;;;;;;14.90;13.10;;;;;;;;;;5016107;28;20467;-72
2022/09/12 08:45:17;;;;;;;14.25;12.63;;;;;;;;;;5010772;28;20421;-71
2022/09/12 08:47:43;;;;;;;14.65;11.93;;;;;;;;;;5014718;28;20266;-72
2022/09/12 08:50:09;;;;;;;14.95;13.23;;;;;;;;;;5017309;28;20191;-70
2022/09/12 08:52:53;;;;;;;17.15;12.52;;;;;;;;;;5014280;28;20179;-72
2022/09/12 08:55:21;;;;;;;15.32;13.25;;;;;;;;;;5020930;28;20225;-72
2022/09/12 08:57:47;;;;;;;12.48;11.23;;;;;;;;;;5008082;28;20211;-72
2022/09/12 09:00:12;;;;;;;12.80;11.05;;;;;;;;;;5011715;28;20802;-73
2022/09/12 09:02:52;;;;;;;14.95;12.45;;;;;;;;;;5008089;28;20202;-71
2022/09/12 09:05:19;;;;;;;14.35;12.82;;;;;;;;;;5020124;28;20636;-73
2022/09/12 09:07:44;;;;;;;14.88;12.45;;;;;;;;;;5022883;28;20223;-72
2022/09/12 09:10:23;;;;;;;15.32;13.27;;;;;;;;;;5011161;28;20294;-72
2022/09/12 09:12:54;;;;;;;14.77;13.27;;;;;;;;;;5010882;28;20557;-72
2022/09/12 09:15:39;;;;;;;15.75;12.77;;;;;;;;;;5019682;28;20179;-72
2022/09/12 09:18:09;;;;;;;14.65;12.63;;;;;;;;;;5022488;28;20236;-70
2022/09/12 09:20:48;;;;;;;15.23;12.40;;;;;;;;;;5021640;28;20626;-69
2022/09/12 09:23:14;;;;;;;14.30;12.40;;;;;;;;;;5012506;28;20229;-71
2022/09/12 09:25:40;;;;;;;14.63;13.02;;;;;;;;;;5014329;28;20833;-71
2022/09/12 09:28:25;;;;;;;15.23;12.98;;;;;;;;;;5022285;28;20211;-72
2022/09/12 09:30:51;;;;;;;12.98;11.45;;;;;;;;;;4991185;28;20210;-72
2022/09/12 09:33:21;;;;;;;12.05;10.80;;;;;;;;;;5016194;28;20219;-71
2022/09/12 09:35:51;;;;;;;13.10;11.73;;;;;;;;;;5016061;28;20232;-71
2022/09/12 09:38:24;;;;;;;15.65;11.63;;;;;;;;;;5019343;28;20202;-72
2022/09/12 09:40:53;;;;;;;12.15;10.35;;;;;;;;;;5014148;28;20198;-69
2022/09/12 09:43:23;;;;;;;13.98;10.80;;;;;;;;;;5004593;28;20274;-71
2022/09/12 09:45:48;;;;;;;12.20;10.85;;;;;;;;;;5019253;28;20186;-72
2022/09/12 09:48:25;;;;;;;12.80;10.20;;;;;;;;;;5029171;28;20218;-71
2022/09/12 09:50:50;;;;;;;11.57;10.05;;;;;;;;;;5016940;28;20277;-72
2022/09/12 09:53:24;;;;;;;12.02;10.50;;;;;;;;;;5024928;28;20206;-71
2022/09/12 09:55:50;;;;;;;12.32;9.88;;;;;;;;;;5022205;28;20182;-69
2022/09/12 09:58:34;;;;;;;9.27;7.97;;;;;;;;;;5022027;28;20190;-69
2022/09/12 10:01:00;;;;;;;8.82;7.93;;;;;;;;;;5023327;28;20208;-69
2022/09/12 10:03:28;;;;;;;8.32;7.18;;;;;;;;;;5013798;28;20207;-69
2022/09/12 10:05:56;;;;;;;10.50;7.90;;;;;;;;;;5017688;28;20640;-69
2022/09/12 10:08:34;;;;;;;8.48;7.15;;;;;;;;;;5024520;28;20667;-72
2022/09/12 10:11:03;;;;;;;7.28;6.57;;;;;;;;;;5015384;28;20214;-71
2022/09/12 10:13:58;;;;;;;9.38;7.47;;;;;;;;;;5017462;28;20553;-71
2022/09/12 10:16:23;;;;;;;7.55;6.78;;;;;;;;;;5013955;28;20199;-72
2022/09/12 10:18:51;;;;;;;8.07;6.70;;;;;;;;;;5023439;28;20182;-71
2022/09/12 10:21:38;;;;;;;9.65;7.45;;;;;;;;;;5019219;28;20393;-70
2022/09/12 10:24:19;;;;;;;8.18;6.80;;;;;;;;;;5016299;28;20202;-69
2022/09/12 10:26:46;;;;;;;7.30;6.00;;;;;;;;;;5005209;28;20187;-69
2022/09/12 10:29:15;;;;;;;8.32;6.47;;;;;;;;;;5013387;28;20190;-69
2022/09/12 10:31:43;;;;;;;8.25;6.70;;;;;;;;;;5025021;28;20684;-69
2022/09/12 10:34:17;;;;;;;7.80;6.43;;;;;;;;;;5023626;28;20187;-70
2022/09/12 10:36:43;;;;;;;9.30;6.00;;;;;;;;;;5021896;28;20577;-70
2022/09/12 10:39:13;;;;;;;8.07;6.00;;;;;;;;;;5016925;28;20183;-70
2022/09/12 10:41:39;;;;;;;6.95;6.25;;;;;;;;;;5015153;28;20420;-70
2022/09/12 10:44:06;;;;;;;6.97;6.32;;;;;;;;;;5020975;28;20614;-70
2022/09/12 10:46:31;;;;;;;9.27;6.55;;;;;;;;;;5023952;28;20177;-71
2022/09/12 10:49:17;;;;;;;7.68;6.10;;;;;;;;;;5020846;28;20529;-70
2022/09/12 10:51:43;;;;;;;7.35;6.65;;;;;;;;;;5016022;28;20198;-70
2022/09/12 10:54:09;;;;;;;8.43;6.53;;;;;;;;;;5007922;28;20333;-70
2022/09/12 10:56:38;;;;;;;5.60;5.10;;;;;;;;;;5006747;28;20646;-69
2022/09/12 10:59:03;;;;;;;4.78;4.25;;;;;;;;;;5013142;28;20193;-70
2022/09/12 11:01:31;;;;;;;4.65;4.15;;;;;;;;;;5007229;28;20198;-70
2022/09/12 11:04:15;;;;;;;5.70;5.05;;;;;;;;;;5009462;28;20214;-70
2022/09/12 11:06:57;;;;;;;7.43;5.00;;;;;;;;;;5017167;28;20558;-70
2022/09/12 11:09:42;;;;;;;7.95;5.18;;;;;;;;;;4996633;28;20177;-70
2022/09/12 11:12:20;;;;;;;5.28;4.78;;;;;;;;;;5003015;28;20233;-70
2022/09/12 11:14:50;;;;;;;7.00;5.05;;;;;;;;;;5016769;28;20240;-70
2022/09/12 11:17:21;;;;;;;6.32;5.72;;;;;;;;;;5012859;28;20186;-70
2022/09/12 11:19:59;;;;;;;5.78;5.18;;;;;;;;;;5020619;28;20186;-70
2022/09/12 11:22:32;;;;;;;6.10;5.15;;;;;;;;;;5018519;28;20273;-71
2022/09/12 11:25:11;;;;;;;6.38;5.72;;;;;;;;;;5022995;28;20178;-70
2022/09/12 11:27:36;;;;;;;6.03;3.75;;;;;;;;;;5012007;28;20665;-70
2022/09/12 11:30:08;;;;;;;4.87;4.37;;;;;;;;;;5017814;28;20210;-70
2022/09/12 11:32:52;;;;;;;4.40;3.78;;;;;;;;;;5019855;28;20229;-71
2022/09/12 11:35:23;;;;;;;5.72;3.58;;;;;;;;;;5024337;28;20182;-70
2022/09/12 11:38:00;;;;;;;4.28;3.30;;;;;;;;;;5022939;28;20178;-70
2022/09/12 11:40:32;;;;;;;3.80;2.97;;;;;;;;;;5020253;28;20207;-70
2022/09/12 11:43:04;;;;;;;4.50;3.70;;;;;;;;;;5011696;28;20265;-71
2022/09/12 11:45:33;;;;;;;3.20;3.00;;;;;;;;;;5022607;28;20170;-71
2022/09/12 11:48:03;;;;;;;2.88;2.63;;;;;;;;;;5023194;28;20617;-70
2022/09/12 11:50:29;;;;;;;3.83;3.25;;;;;;;;;;5019301;28;20590;-70
2022/09/12 11:52:58;;;;;;;4.68;3.42;;;;;;;;;;5020126;28;20643;-70
2022/09/12 11:55:26;;;;;;;4.20;3.30;;;;;;;;;;5012011;28;20286;-70
2022/09/12 11:57:53;;;;;;;4.22;3.60;;;;;;;;;;5011157;28;20213;-70
2022/09/12 12:00:20;;;;;;;4.18;3.03;;;;;;;;;;5015157;28;20209;-71
2022/09/12 12:02:54;;;;;;;3.53;2.97;;;;;;;;;;5003064;28;20251;-70
2022/09/12 12:05:19;;;;;;;3.10;2.80;;;;;;;;;;5010715;28;20647;-70
2022/09/12 12:07:51;;;;;;;3.20;2.90;;;;;;;;;;5012527;28;20185;-71
2022/09/12 12:10:29;;;;;;;3.25;2.95;;;;;;;;;;5009196;28;20322;-70
2022/09/12 12:12:55;;;;;;;5.20;3.15;;;;;;;;;;5019367;28;20316;-69
2022/09/12 12:15:21;;;;;;;4.55;3.88;;;;;;;;;;5015009;28;20174;-70
2022/09/12 12:17:58;;;;;;;3.58;3.28;;;;;;;;;;5020853;28;20185;-70
2022/09/12 12:20:23;;;;;;;2.90;2.60;;;;;;;;;;5015083;28;20621;-70
2022/09/12 12:22:52;;;;;;;3.70;3.40;;;;;;;;;;5012200;28;20199;-70
2022/09/12 12:25:17;;;;;;;5.30;3.17;;;;;;;;;;5010134;28;20509;-71
2022/09/12 12:27:42;;;;;;;4.20;3.23;;;;;;;;;;5014062;28;20266;-71
2022/09/12 12:30:26;;;;;;;3.90;3.20;;;;;;;;;;5014325;28;20606;-70
2022/09/12 12:32:57;;;;;;;4.72;3.65;;;;;;;;;;5013743;28;20178;-70
2022/09/12 12:35:35;;;;;;;3.50;3.20;;;;;;;;;;5018151;28;20178;-71
2022/09/12 12:38:01;;;;;;;4.65;3.58;;;;;;;;;;5010704;28;20183;-70
2022/09/12 12:40:27;;;;;;;5.15;3.88;;;;;;;;;;5022114;28;20198;-70
2022/09/12 12:42:55;;;;;;;4.25;3.03;;;;;;;;;;5016911;28;20742;-70
2022/09/12 12:45:26;;;;;;;4.53;3.70;;;;;;;;;;5011908;28;20183;-70
2022/09/12 12:48:07;;;;;;;3.80;3.40;;;;;;;;;;4990301;28;20642;-70
2022/09/12 12:50:33;;;;;;;4.20;3.80;;;;;;;;;;5008907;28;20206;-70
2022/09/12 12:53:16;;;;;;;4.63;4.22;;;;;;;;;;5015749;28;20536;-70
2022/09/12 12:55:42;;;;;;;4.47;3.55;;;;;;;;;;5010661;28;20514;-70
2022/09/12 12:58:22;;;;;;;3.97;3.53;;;;;;;;;;5014796;28;20729;-70
2022/09/12 13:01:04;;;;;;;4.85;3.35;;;;;;;;;;5007465;28;20190;-70
2022/09/12 13:03:31;;;;;;;3.63;3.08;;;;;;;;;;5021128;28;20663;-70
2022/09/12 13:05:59;;;;;;;5.03;3.03;;;;;;;;;;4992563;28;20560;-71
2022/09/12 13:08:35;;;;;;;3.58;3.25;;;;;;;;;;5022746;28;20258;-70
2022/09/12 13:11:06;;;;;;;3.70;3.40;;;;;;;;;;4999547;28;20260;-70
2022/09/12 13:13:49;;;;;;;4.45;3.90;;;;;;;;;;5013154;28;20342;-71
2022/09/12 13:16:30;;;;;;;5.22;3.95;;;;;;;;;;5012340;28;20738;-70
2022/09/12 13:18:56;;;;;;;4.93;3.15;;;;;;;;;;5013539;28;20189;-71
2022/09/12 13:21:22;;;;;;;3.28;2.97;;;;;;;;;;5015277;28;20218;-70
2022/09/12 13:24:01;;;;;;;3.83;2.50;;;;;;;;;;5015253;28;20203;-70
2022/09/12 13:26:27;;;;;;;4.40;3.10;;;;;;;;;;5024123;28;20177;-71
2022/09/12 13:29:11;;;;;;;3.20;2.90;;;;;;;;;;5017792;28;20187;-70
2022/09/12 13:31:36;;;;;;;2.75;2.45;;;;;;;;;;5022212;28;20249;-71
2022/09/12 13:34:04;;;;;;;3.67;2.60;;;;;;;;;;5016652;28;20186;-70
2022/09/12 13:36:48;;;;;;;4.72;3.38;;;;;;;;;;5012608;28;20195;-70
2022/09/12 13:39:15;;;;;;;3.80;2.80;;;;;;;;;;5020945;28;20196;-70
2022/09/12 13:41:55;;;;;;;3.97;3.10;;;;;;;;;;5020906;28;20194;-71
2022/09/12 13:44:21;;;;;;;2.90;2.60;;;;;;;;;;5019531;28;20185;-70
2022/09/12 13:46:47;;;;;;;3.42;2.45;;;;;;;;;;5016583;28;20199;-70
2022/09/12 13:49:34;;;;;;;2.92;2.63;;;;;;;;;;5013316;28;20211;-70
2022/09/12 13:52:07;;;;;;;3.13;2.83;;;;;;;;;;5013159;28;20636;-70
2022/09/12 13:54:33;;;;;;;4.93;3.03;;;;;;;;;;5022664;28;20301;-71
2022/09/12 13:56:58;;;;;;;3.92;2.60;;;;;;;;;;5026346;28;20265;-70
2022/09/12 13:59:24;;;;;;;4.85;2.95;;;;;;;;;;5013974;28;20592;-71
2022/09/12 14:01:49;;;;;;;2.95;2.65;;;;;;;;;;5017995;28;20194;-70
2022/09/12 14:07:10;;;;;;;6.60;2.65;;;;;;;;;;5023516;28;20216;-71
2022/09/12 14:09:40;;;;;;;6.35;2.70;;;;;;;;;;5021107;28;20171;-71
2022/09/12 14:12:20;;;;;;;3.40;2.60;;;;;;;;;;5012043;28;20194;-70
2022/09/12 14:14:47;;;;;;;2.20;2.00;;;;;;;;;;5011744;28;20178;-71
2022/09/12 14:17:16;;;;;;;3.67;2.22;;;;;;;;;;5025887;28;20671;-70
2022/09/12 14:19:42;;;;;;;2.78;2.30;;;;;;;;;;5022286;28;20660;-70
2022/09/12 14:22:10;;;;;;;6.90;2.75;;;;;;;;;;5025244;28;20202;-71
2022/09/12 14:24:36;;;;;;;3.67;2.88;;;;;;;;;;5023843;28;20181;-71
2022/09/12 14:27:01;;;;;;;3.78;2.70;;;;;;;;;;5001023;28;20629;-70
2022/09/12 14:29:27;;;;;;;8.63;2.72;;;;;;;;;;5013160;28;20542;-70
2022/09/12 14:31:59;;;;;;;2.70;2.35;;;;;;;;;;5013416;28;20206;-71
2022/09/12 14:34:24;;;;;;;2.80;2.28;;;;;;;;;;5019431;28;20174;-71
2022/09/12 14:36:51;;;;;;;2.58;2.38;;;;;;;;;;5025357;28;20175;-70
2022/09/12 14:39:22;;;;;;;4.10;2.63;;;;;;;;;;5024812;28;20562;-70